Time;durP1;ratioP1;P1;durP2;ratioP2;P2;SDS_P1;SDS_P2;PMS_P1;PMS_P2;Temp;Humidity;BMP_temperature;BMP_pressure;BME280_temperature;BME280_humidity;BME280_pressure;Samples;Min_cycle;Max_cycle;Signal;HPM_P1;HPM_P2
2022/10/07 00:01:54;;;;;;;;;;;8.10;99.90;;;;;;5032333;28;19929;-68
2022/10/07 00:04:20;;;;;;;;;;;8.10;99.90;;;;;;5030990;28;19928;-68
2022/10/07 00:06:45;;;;;;;;;;;8.10;99.90;;;;;;5032434;28;19924;-68
2022/10/07 00:09:11;;;;;;;;;;;8.10;99.90;;;;;;5049413;28;19925;-68
2022/10/07 00:11:36;;;;;;;;;;;8.00;99.90;;;;;;5032442;28;19974;-68
2022/10/07 00:14:03;;;;;;;;;;;8.00;99.90;;;;;;5050652;28;19924;-68
2022/10/07 00:16:33;;;;;;;;;;;8.00;99.90;;;;;;5029203;28;19959;-68
2022/10/07 00:19:00;;;;;;;;;;;8.00;99.90;;;;;;5050357;28;19925;-68
2022/10/07 00:21:26;;;;;;;;;;;8.00;99.90;;;;;;5049414;28;19924;-68
2022/10/07 00:23:51;;;;;;;;;;;7.90;99.90;;;;;;5051448;28;20012;-68
2022/10/07 00:26:18;;;;;;;;;;;7.90;99.90;;;;;;5030466;28;20126;-68
2022/10/07 00:28:44;;;;;;;;;;;7.80;99.90;;;;;;5051251;28;20004;-68
2022/10/07 00:31:14;;;;;;;;;;;7.80;99.90;;;;;;5036246;28;20011;-68
2022/10/07 00:33:40;;;;;;;;;;;7.80;99.90;;;;;;5049827;28;20023;-67
2022/10/07 00:36:18;;;;;;;;;;;7.80;99.90;;;;;;5031762;28;20019;-67
2022/10/07 00:38:43;;;;;;;;;;;7.80;99.90;;;;;;5049791;28;19925;-67
2022/10/07 00:41:15;;;;;;;;;;;7.70;99.90;;;;;;5031784;28;19935;-67
2022/10/07 00:43:40;;;;;;;;;;;7.70;99.90;;;;;;5032797;28;19940;-67
2022/10/07 00:46:17;;;;;;;;;;;7.70;99.90;;;;;;5049984;28;19921;-67
2022/10/07 00:48:45;;;;;;;;;;;7.60;99.90;;;;;;5048930;28;19921;-68
2022/10/07 00:51:11;;;;;;;;;;;7.60;99.90;;;;;;5050380;28;19991;-68
2022/10/07 00:53:38;;;;;;;;;;;7.60;99.90;;;;;;5031633;28;20015;-68
2022/10/07 00:56:04;;;;;;;;;;;7.50;99.90;;;;;;5042774;28;19929;-68
2022/10/07 00:58:31;;;;;;;;;;;7.50;99.90;;;;;;5031541;28;19929;-68
2022/10/07 01:00:56;;;;;;;;;;;7.50;99.90;;;;;;5053532;28;20007;-68
2022/10/07 01:03:23;;;;;;;;;;;7.50;99.90;;;;;;5052078;28;19959;-68
2022/10/07 01:05:49;;;;;;;;;;;7.50;99.90;;;;;;5053589;28;19928;-68
2022/10/07 01:08:15;;;;;;;;;;;7.50;99.90;;;;;;5054262;28;19921;-68
2022/10/07 01:10:51;;;;;;;;;;;7.40;99.90;;;;;;5051280;28;19925;-68
2022/10/07 01:13:22;;;;;;;;;;;7.50;99.90;;;;;;5054247;28;19929;-68
2022/10/07 01:16:03;;;;;;;;;;;7.50;99.90;;;;;;5033503;28;20370;-68
2022/10/07 01:18:44;;;;;;;;;;;7.40;99.90;;;;;;5053573;28;20035;-68
2022/10/07 01:21:21;;;;;;;;;;;7.50;99.90;;;;;;5033821;28;19954;-67
2022/10/07 01:23:59;;;;;;;;;;;7.40;99.90;;;;;;5035949;28;20105;-67
2022/10/07 01:26:27;;;;;;;;;;;7.40;99.90;;;;;;5050883;28;19932;-67
2022/10/07 01:29:05;;;;;;;;;;;7.40;99.90;;;;;;5051962;28;19935;-67
2022/10/07 01:31:39;;;;;;;;;;;7.40;99.90;;;;;;5033250;28;20456;-67
2022/10/07 01:34:06;;;;;;;;;;;7.30;99.90;;;;;;5058624;28;20366;-67
2022/10/07 01:36:32;;;;;;;;;;;7.30;99.90;;;;;;5052410;28;19920;-67
2022/10/07 01:39:02;;;;;;;;;;;7.30;99.90;;;;;;5031476;28;19925;-67
2022/10/07 01:41:27;;;;;;;;;;;7.30;99.90;;;;;;5047593;28;19924;-67
2022/10/07 01:43:53;;;;;;;;;;;;;;;;;;5050873;28;19921;-67
2022/10/07 01:46:23;;;;;;;;;;;7.30;99.90;;;;;;5029890;28;19924;-67
2022/10/07 01:48:50;;;;;;;;;;;7.30;99.90;;;;;;5053502;28;19927;-67
2022/10/07 01:51:17;;;;;;;;;;;7.20;99.90;;;;;;5033998;28;19925;-67
2022/10/07 01:53:49;;;;;;;;;;;7.20;99.90;;;;;;5051733;28;19927;-67
2022/10/07 01:56:26;;;;;;;;;;;7.20;99.90;;;;;;5034742;28;20018;-67
2022/10/07 01:59:11;;;;;;;;;;;7.20;99.90;;;;;;5034736;28;19931;-68
2022/10/07 02:01:36;;;;;;;;;;;7.20;99.90;;;;;;5050620;28;19925;-68
2022/10/07 02:04:11;;;;;;;;;;;7.10;99.90;;;;;;5051812;28;19920;-68
2022/10/07 02:06:47;;;;;;;;;;;7.10;99.90;;;;;;5035495;28;20014;-68
2022/10/07 02:09:34;;;;;;;;;;;7.20;99.90;;;;;;5035088;28;19982;-68
2022/10/07 02:12:23;;;;;;;;;;;7.10;99.90;;;;;;5034351;28;19925;-68
2022/10/07 02:14:55;;;;;;;;;;;7.10;99.90;;;;;;4995073;28;19920;-68
2022/10/07 02:17:22;;;;;;;;;;;7.10;99.90;;;;;;5034659;28;19976;-68
2022/10/07 02:19:52;;;;;;;;;;;7.10;99.90;;;;;;5053201;28;20004;-68
2022/10/07 02:22:19;;;;;;;;;;;7.10;99.90;;;;;;5032036;28;20017;-68
2022/10/07 02:24:46;;;;;;;;;;;7.10;99.90;;;;;;5053176;28;19948;-68
2022/10/07 02:27:14;;;;;;;;;;;7.00;99.90;;;;;;5034405;28;20286;-68
2022/10/07 02:29:40;;;;;;;;;;;7.00;99.90;;;;;;5031309;28;19936;-68
2022/10/07 02:32:07;;;;;;;;;;;7.00;99.90;;;;;;5051132;28;19920;-68
2022/10/07 02:34:33;;;;;;;;;;;7.00;99.90;;;;;;5053544;28;19967;-68
2022/10/07 02:37:03;;;;;;;;;;;7.00;99.90;;;;;;5033311;28;19920;-68
2022/10/07 02:39:28;;;;;;;;;;;7.00;99.90;;;;;;5034116;28;19925;-68
2022/10/07 02:41:58;;;;;;;;;;;7.00;99.90;;;;;;5051685;28;19928;-68
2022/10/07 02:44:28;;;;;;;;;;;6.90;99.90;;;;;;5034580;28;20270;-68
2022/10/07 02:46:57;;;;;;;;;;;7.00;99.90;;;;;;5029429;28;19925;-68
2022/10/07 02:49:23;;;;;;;;;;;6.90;99.90;;;;;;5050918;28;20290;-68
2022/10/07 02:51:53;;;;;;;;;;;6.90;99.90;;;;;;5049788;28;19953;-68
2022/10/07 02:54:23;;;;;;;;;;;7.00;99.90;;;;;;5033606;28;19929;-68
2022/10/07 02:56:48;;;;;;;;;;;6.90;99.90;;;;;;5049344;28;19936;-68
2022/10/07 02:59:15;;;;;;;;;;;6.90;99.90;;;;;;5052161;28;20469;-69
2022/10/07 03:01:44;;;;;;;;;;;6.90;99.90;;;;;;5049966;28;19933;-68
2022/10/07 03:04:10;;;;;;;;;;;6.90;99.90;;;;;;5046485;28;19921;-68
2022/10/07 03:06:35;;;;;;;;;;;6.90;99.90;;;;;;5047868;28;19928;-68
2022/10/07 03:09:01;;;;;;;;;;;6.90;99.90;;;;;;5032590;28;19925;-68
2022/10/07 03:11:27;;;;;;;;;;;6.90;99.90;;;;;;5051381;28;19932;-68
2022/10/07 03:13:53;;;;;;;;;;;6.90;99.90;;;;;;5051951;28;20011;-68
2022/10/07 03:16:18;;;;;;;;;;;6.90;99.90;;;;;;5033576;28;20358;-68
2022/10/07 03:18:45;;;;;;;;;;;6.90;99.90;;;;;;5033556;28;19928;-68
2022/10/07 03:21:10;;;;;;;;;;;6.90;99.90;;;;;;5047073;28;20010;-68
2022/10/07 03:23:37;;;;;;;;;;;6.90;99.90;;;;;;5049165;28;19972;-68
2022/10/07 03:26:02;;;;;;;;;;;6.90;99.90;;;;;;5048364;28;19921;-68
2022/10/07 03:28:29;;;;;;;;;;;6.90;99.90;;;;;;5050307;28;19986;-68
2022/10/07 03:31:02;;;;;;;;;;;6.90;99.90;;;;;;5049581;28;19920;-68
2022/10/07 03:33:27;;;;;;;;;;;6.90;99.90;;;;;;5051115;28;19928;-68
2022/10/07 03:35:53;;;;;;;;;;;6.90;99.90;;;;;;5043667;28;20267;-68
2022/10/07 03:38:18;;;;;;;;;;;6.90;99.90;;;;;;5043401;28;19929;-68
2022/10/07 03:40:44;;;;;;;;;;;6.80;99.90;;;;;;5032880;28;19925;-68
2022/10/07 03:43:09;;;;;;;;;;;6.90;99.90;;;;;;5049995;28;19924;-67
2022/10/07 03:45:41;;;;;;;;;;;6.90;99.90;;;;;;5050155;28;19935;-68
2022/10/07 03:48:06;;;;;;;;;;;6.90;99.90;;;;;;5051278;28;19942;-68
2022/10/07 03:50:33;;;;;;;;;;;6.90;99.90;;;;;;5032211;28;20820;-68
2022/10/07 03:52:58;;;;;;;;;;;6.90;99.90;;;;;;5032482;28;19924;-68
2022/10/07 03:55:24;;;;;;;;;;;6.90;99.90;;;;;;5027696;28;19932;-68
2022/10/07 03:57:49;;;;;;;;;;;6.90;99.90;;;;;;5051620;28;19921;-68
2022/10/07 04:00:15;;;;;;;;;;;6.90;99.90;;;;;;5049822;28;19971;-68
2022/10/07 04:02:40;;;;;;;;;;;6.90;99.90;;;;;;5031995;28;20332;-68
2022/10/07 04:05:06;;;;;;;;;;;6.90;99.90;;;;;;5032702;28;19921;-68
2022/10/07 04:07:32;;;;;;;;;;;6.90;99.90;;;;;;5050563;28;19967;-68
2022/10/07 04:09:57;;;;;;;;;;;7.00;99.90;;;;;;5059718;23;19935;-66
2022/10/07 04:12:23;;;;;;;;;;;7.00;99.90;;;;;;5069375;28;19920;-66
2022/10/07 04:14:49;;;;;;;;;;;7.00;99.90;;;;;;5073096;28;20338;-66
2022/10/07 04:17:17;;;;;;;;;;;7.00;99.90;;;;;;5073058;28;19921;-66
2022/10/07 04:19:43;;;;;;;;;;;7.10;99.90;;;;;;5089458;28;19928;-66
2022/10/07 04:22:09;;;;;;;;;;;7.10;99.90;;;;;;5069405;28;19924;-66
2022/10/07 04:24:34;;;;;;;;;;;7.10;99.90;;;;;;5092418;28;19974;-66
2022/10/07 04:27:00;;;;;;;;;;;7.10;99.90;;;;;;5074006;28;19920;-66
2022/10/07 04:29:25;;;;;;;;;;;7.10;99.90;;;;;;5054659;28;20007;-65
2022/10/07 04:31:51;;;;;;;;;;;7.20;99.90;;;;;;5078953;28;19924;-66
2022/10/07 04:34:16;;;;;;;;;;;7.20;99.90;;;;;;5078385;28;20046;-66
2022/10/07 04:36:41;;;;;;;;;;;7.20;99.90;;;;;;5071082;28;19920;-66
2022/10/07 04:39:07;;;;;;;;;;;7.20;99.90;;;;;;5057143;28;20039;-66
2022/10/07 04:41:32;;;;;;;;;;;7.20;99.90;;;;;;5098878;28;20030;-66
2022/10/07 04:43:58;;;;;;;;;;;7.20;99.90;;;;;;5056623;28;19930;-66
2022/10/07 04:46:23;;;;;;;;;;;7.20;99.90;;;;;;5072900;28;19920;-66
2022/10/07 04:48:49;;;;;;;;;;;7.20;99.90;;;;;;5069462;28;19927;-66
2022/10/07 04:51:14;;;;;;;;;;;7.20;99.90;;;;;;5075123;28;19920;-66
2022/10/07 04:53:40;;;;;;;;;;;7.20;99.90;;;;;;5075663;28;19920;-66
2022/10/07 04:56:05;;;;;;;;;;;7.20;99.90;;;;;;5087582;28;19921;-66
2022/10/07 04:58:31;;;;;;;;;;;7.30;99.90;;;;;;5076284;28;20369;-66
2022/10/07 05:00:57;;;;;;;;;;;7.30;99.90;;;;;;5074833;28;19928;-66
2022/10/07 05:03:24;;;;;;;;;;;7.30;99.90;;;;;;5074837;28;20007;-66
2022/10/07 05:05:51;;;;;;;;;;;7.30;99.90;;;;;;5083222;28;20425;-66
2022/10/07 05:08:17;;;;;;;;;;;7.30;99.90;;;;;;5073746;28;20280;-66
2022/10/07 05:10:43;;;;;;;;;;;7.40;99.90;;;;;;5084752;28;19928;-65
2022/10/07 05:13:11;;;;;;;;;;;7.30;99.90;;;;;;5089546;28;19977;-66
2022/10/07 05:15:37;;;;;;;;;;;7.30;99.90;;;;;;5079033;28;20349;-66
2022/10/07 05:18:04;;;;;;;;;;;7.40;99.90;;;;;;5074780;28;19960;-66
2022/10/07 05:20:30;;;;;;;;;;;7.30;99.90;;;;;;5078515;28;20457;-66
2022/10/07 05:22:55;;;;;;;;;;;7.40;99.90;;;;;;5087029;28;20010;-65
2022/10/07 05:25:21;;;;;;;;;;;7.40;99.90;;;;;;5075452;28;20293;-65
2022/10/07 05:27:50;;;;;;;;;;;7.40;99.90;;;;;;5083485;28;19925;-65
2022/10/07 05:30:17;;;;;;;;;;;7.40;99.90;;;;;;5081942;28;20009;-65
2022/10/07 05:32:43;;;;;;;;;;;7.40;99.90;;;;;;5083300;28;19924;-65
2022/10/07 05:35:09;;;;;;;;;;;7.40;99.90;;;;;;5087104;28;19924;-65
2022/10/07 05:37:34;;;;;;;;;;;7.50;99.90;;;;;;5070933;28;19947;-65
2022/10/07 05:40:00;;;;;;;;;;;7.50;99.90;;;;;;5073144;28;19927;-65
2022/10/07 05:42:26;;;;;;;;;;;7.50;99.90;;;;;;5072312;28;20002;-65
2022/10/07 05:44:51;;;;;;;;;;;7.60;99.90;;;;;;5073307;28;19932;-65
2022/10/07 05:47:17;;;;;;;;;;;7.60;99.90;;;;;;5083811;28;20346;-65
2022/10/07 05:49:43;;;;;;;;;;;7.60;99.90;;;;;;5071015;28;19992;-65
2022/10/07 05:52:08;;;;;;;;;;;7.70;99.90;;;;;;5068529;28;20254;-65
2022/10/07 05:54:34;;;;;;;;;;;7.70;99.90;;;;;;5090196;28;20010;-66
2022/10/07 05:56:59;;;;;;;;;;;7.70;99.90;;;;;;5067953;28;19920;-66
2022/10/07 05:59:25;;;;;;;;;;;7.80;99.90;;;;;;5068722;28;19931;-66
2022/10/07 06:01:50;;;;;;;;;;;7.80;99.90;;;;;;5056912;28;20012;-66
2022/10/07 06:04:18;;;;;;;;;;;7.80;99.90;;;;;;5082387;28;20319;-66
2022/10/07 06:06:44;;;;;;;;;;;7.90;99.90;;;;;;5090183;28;19935;-66
2022/10/07 06:14:38;;;;;;;;;;;8.00;99.90;;;;;;5066626;28;19967;-66
2022/10/07 06:17:03;;;;;;;;;;;8.10;99.90;;;;;;5066454;28;20454;-66
2022/10/07 06:19:28;;;;;;;;;;;8.20;99.90;;;;;;5076582;28;19924;-66
2022/10/07 06:21:54;;;;;;;;;;;8.30;99.90;;;;;;5074776;28;20269;-66
2022/10/07 06:24:19;;;;;;;;;;;8.50;99.90;;;;;;5078557;28;19943;-66
2022/10/07 06:26:45;;;;;;;;;;;8.80;99.90;;;;;;5074617;28;19946;-66
2022/10/07 06:29:12;;;;;;;;;;;8.90;99.90;;;;;;5070960;28;20081;-66
2022/10/07 06:31:37;;;;;;;;;;;9.10;99.90;;;;;;5072565;28;19920;-66
2022/10/07 06:34:02;;;;;;;;;;;9.20;99.90;;;;;;5076748;28;20297;-67
2022/10/07 06:36:28;;;;;;;;;;;9.30;99.90;;;;;;5074950;28;19931;-66
2022/10/07 06:38:54;;;;;;;;;;;9.40;99.90;;;;;;5070604;28;19920;-66
2022/10/07 06:41:20;;;;;;;;;;;9.60;99.90;;;;;;5071885;28;19978;-66
2022/10/07 06:43:46;;;;;;;;;;;10.10;99.90;;;;;;5075336;28;19920;-67
2022/10/07 06:46:13;;;;;;;;;;;10.80;99.90;;;;;;5082095;28;19924;-66
2022/10/07 06:48:39;;;;;;;;;;;11.50;99.90;;;;;;5084117;28;19928;-66
2022/10/07 06:51:05;;;;;;;;;;;12.10;99.90;;;;;;5089477;28;19925;-66
2022/10/07 06:53:31;;;;;;;;;;;12.60;99.90;;;;;;5078602;28;19924;-66
2022/10/07 06:56:00;;;;;;;;;;;13.30;99.90;;;;;;5069143;28;19921;-66
2022/10/07 06:58:26;;;;;;;;;;;13.90;99.90;;;;;;5086966;28;19929;-66
2022/10/07 07:00:52;;;;;;;;;;;14.40;99.90;;;;;;5069955;28;19939;-65
2022/10/07 07:03:18;;;;;;;;;;;14.70;99.90;;;;;;5079302;28;19925;-65
2022/10/07 07:05:43;;;;;;;;;;;;;;;;;;5085886;28;20011;-65
2022/10/07 07:08:09;;;;;;;;;;;15.40;99.90;;;;;;5072111;28;19920;-66
2022/10/07 07:10:38;;;;;;;;;;;15.60;99.90;;;;;;5080006;28;20499;-66
2022/10/07 07:13:06;;;;;;;;;;;15.50;99.90;;;;;;5054717;28;19972;-66
2022/10/07 07:15:32;;;;;;;;;;;15.00;99.90;;;;;;5075448;28;19928;-66
2022/10/07 07:17:58;;;;;;;;;;;14.40;99.90;;;;;;5076181;28;19921;-65
2022/10/07 07:20:23;;;;;;;;;;;13.90;99.90;;;;;;5085105;28;19927;-66
2022/10/07 07:22:51;;;;;;;;;;;13.60;99.90;;;;;;5051368;28;19932;-65
2022/10/07 07:25:19;;;;;;;;;;;13.30;99.90;;;;;;5068992;28;19924;-65
2022/10/07 07:27:48;;;;;;;;;;;13.20;99.90;;;;;;5074448;28;19935;-65
2022/10/07 07:30:13;;;;;;;;;;;13.10;99.90;;;;;;5071763;28;19927;-65
2022/10/07 07:32:39;;;;;;;;;;;13.50;99.90;;;;;;5072376;28;20301;-65
2022/10/07 07:35:05;;;;;;;;;;;13.80;99.90;;;;;;5101230;28;20481;-65
2022/10/07 07:37:32;;;;;;;;;;;13.70;99.90;;;;;;5076478;28;19920;-65
2022/10/07 07:39:57;;;;;;;;;;;13.60;99.90;;;;;;5074276;28;19925;-65
2022/10/07 07:42:23;;;;;;;;;;;13.50;99.90;;;;;;5076797;28;19978;-64
2022/10/07 07:44:48;;;;;;;;;;;13.40;99.90;;;;;;5075555;28;20346;-65
2022/10/07 07:47:15;;;;;;;;;;;13.30;99.90;;;;;;5079848;28;19931;-65
2022/10/07 07:49:41;;;;;;;;;;;13.20;99.90;;;;;;5073915;28;20404;-65
2022/10/07 07:52:07;;;;;;;;;;;13.10;99.90;;;;;;5073321;28;19924;-65
2022/10/07 07:54:36;;;;;;;;;;;13.10;99.90;;;;;;5104290;28;19922;-65
2022/10/07 07:57:02;;;;;;;;;;;13.10;99.90;;;;;;5088480;28;20359;-65
2022/10/07 07:59:28;;;;;;;;;;;13.10;99.90;;;;;;5071329;28;19951;-65
2022/10/07 08:01:53;;;;;;;;;;;13.10;99.90;;;;;;5089944;28;20357;-65
2022/10/07 08:04:19;;;;;;;;;;;13.10;99.90;;;;;;5072993;28;19920;-65
2022/10/07 08:06:44;;;;;;;;;;;13.20;99.90;;;;;;5066703;28;19929;-65
2022/10/07 08:09:11;;;;;;;;;;;13.10;99.90;;;;;;5074654;28;19932;-65
2022/10/07 08:11:37;;;;;;;;;;;13.20;99.90;;;;;;5071458;28;20282;-65
2022/10/07 08:14:02;;;;;;;;;;;13.30;99.90;;;;;;5079443;28;19946;-65
2022/10/07 08:16:28;;;;;;;;;;;13.30;99.90;;;;;;5077750;28;19921;-65
2022/10/07 08:18:54;;;;;;;;;;;13.60;99.90;;;;;;5091275;28;19943;-65
2022/10/07 08:21:21;;;;;;;;;;;13.60;99.90;;;;;;5081533;28;19925;-65
2022/10/07 08:23:46;;;;;;;;;;;13.70;99.90;;;;;;5077707;28;19924;-65
2022/10/07 08:26:12;;;;;;;;;;;13.70;99.90;;;;;;5075082;28;19944;-65
2022/10/07 08:28:39;;;;;;;;;;;13.80;99.90;;;;;;5079755;28;20054;-65
2022/10/07 08:31:05;;;;;;;;;;;13.80;99.90;;;;;;5075291;28;19959;-65
2022/10/07 08:33:33;;;;;;;;;;;13.80;99.90;;;;;;5077841;28;19920;-65
2022/10/07 08:35:59;;;;;;;;;;;13.90;99.90;;;;;;5076425;28;19924;-65
2022/10/07 08:38:28;;;;;;;;;;;13.90;99.90;;;;;;5073337;28;20380;-65
2022/10/07 08:40:53;;;;;;;;;;;13.90;99.90;;;;;;5094471;28;20025;-65
2022/10/07 08:43:20;;;;;;;;;;;13.90;99.90;;;;;;5084122;28;20384;-65
2022/10/07 08:45:46;;;;;;;;;;;13.80;99.90;;;;;;5078696;28;20350;-65
2022/10/07 08:48:16;;;;;;;;;;;13.90;99.90;;;;;;5076744;28;19939;-65
2022/10/07 08:50:56;;;;;;;;;;;13.90;99.90;;;;;;5083418;28;20006;-65
2022/10/07 08:53:32;;;;;;;;;;;14.00;99.90;;;;;;5078954;28;20015;-65
2022/10/07 08:56:04;;;;;;;;;;;14.00;99.90;;;;;;5103285;28;19927;-65
2022/10/07 08:58:30;;;;;;;;;;;14.00;99.90;;;;;;5080379;28;19920;-66
2022/10/07 09:01:00;;;;;;;;;;;14.00;99.90;;;;;;5083350;28;20034;-66
2022/10/07 09:03:26;;;;;;;;;;;14.00;99.90;;;;;;5079916;28;19924;-66
2022/10/07 09:05:52;;;;;;;;;;;14.10;99.90;;;;;;5088930;28;19924;-66
2022/10/07 09:08:20;;;;;;;;;;;14.10;99.90;;;;;;5063967;28;20266;-66
2022/10/07 09:10:52;;;;;;;;;;;14.10;99.90;;;;;;5080938;28;19931;-66
2022/10/07 09:13:28;;;;;;;;;;;14.10;99.90;;;;;;5074989;28;20010;-65
2022/10/07 09:15:59;;;;;;;;;;;14.20;99.90;;;;;;5077147;28;20003;-66
2022/10/07 09:18:30;;;;;;;;;;;14.20;99.90;;;;;;5075413;28;20002;-66
2022/10/07 09:20:56;;;;;;;;;;;14.20;99.90;;;;;;5075919;28;20426;-65
2022/10/07 09:23:23;;;;;;;;;;;14.30;99.90;;;;;;5078289;28;19931;-66
2022/10/07 09:25:50;;;;;;;;;;;14.30;99.90;;;;;;5072203;28;20015;-66
2022/10/07 09:28:17;;;;;;;;;;;14.40;99.90;;;;;;5077653;28;19970;-66
2022/10/07 09:30:43;;;;;;;;;;;14.40;99.90;;;;;;5093339;28;19960;-66
2022/10/07 09:33:17;;;;;;;;;;;14.50;99.90;;;;;;5072929;28;19960;-66
2022/10/07 09:35:51;;;;;;;;;;;14.50;99.90;;;;;;5078972;28;19965;-66
2022/10/07 09:38:27;;;;;;;;;;;14.60;99.90;;;;;;5081785;28;20447;-66
2022/10/07 09:41:14;;;;;;;;;;;14.60;99.90;;;;;;5064609;28;19927;-66
2022/10/07 09:43:41;;;;;;;;;;;14.70;99.90;;;;;;5073747;28;19947;-66
2022/10/07 09:46:23;;;;;;;;;;;14.80;99.90;;;;;;5072820;28;19931;-66
2022/10/07 09:48:51;;;;;;;;;;;14.80;99.90;;;;;;5086438;28;19927;-66
2022/10/07 09:51:24;;;;;;;;;;;14.90;99.90;;;;;;5084005;28;20634;-66
2022/10/07 09:53:56;;;;;;;;;;;14.90;99.90;;;;;;5077258;28;20410;-66
2022/10/07 09:56:31;;;;;;;;;;;15.00;99.90;;;;;;5086276;28;19934;-67
2022/10/07 09:59:13;;;;;;;;;;;15.10;99.90;;;;;;5076906;28;19970;-66
2022/10/07 10:01:40;;;;;;;;;;;15.20;99.90;;;;;;5092110;28;19935;-66
2022/10/07 10:04:14;;;;;;;;;;;15.30;99.90;;;;;;5077869;28;19943;-66
2022/10/07 10:06:44;;;;;;;;;;;15.50;99.90;;;;;;5084076;28;19920;-66
2022/10/07 10:09:10;;;;;;;;;;;15.60;99.90;;;;;;5072167;28;20317;-66
2022/10/07 10:11:35;;;;;;;;;;;15.70;99.90;;;;;;5088988;28;19955;-66
2022/10/07 10:14:01;;;;;;;;;;;;;;;;;;5047792;28;20012;-66
2022/10/07 10:16:33;;;;;;;;;;;15.90;99.90;;;;;;5064279;28;19924;-66
2022/10/07 10:19:03;;;;;;;;;;;15.90;99.90;;;;;;5065928;28;19924;-66
2022/10/07 10:21:29;;;;;;;;;;;16.00;99.90;;;;;;5097239;28;19927;-66
2022/10/07 10:23:56;;;;;;;;;;;16.00;99.90;;;;;;5065589;28;19921;-66
2022/10/07 10:26:40;;;;;;;;;;;16.10;99.90;;;;;;5066787;28;19985;-66
2022/10/07 10:29:12;;;;;;;;;;;16.10;99.90;;;;;;5089084;28;19927;-68
2022/10/07 10:31:38;;;;;;;;;;;;;;;;;;5067029;28;19929;-66
2022/10/07 10:34:19;;;;;;;;;;;16.20;99.90;;;;;;5085910;28;19951;-66
2022/10/07 10:36:51;;;;;;;;;;;16.20;99.90;;;;;;5084467;28;19978;-66
2022/10/07 10:39:27;;;;;;;;;;;16.30;99.90;;;;;;5067416;28;19924;-66
2022/10/07 10:41:55;;;;;;;;;;;16.40;99.90;;;;;;5061881;28;19924;-66
2022/10/07 10:44:20;;;;;;;;;;;16.50;99.90;;;;;;5067081;28;19932;-66
2022/10/07 10:46:55;;;;;;;;;;;16.60;99.90;;;;;;5061270;28;19924;-66
2022/10/07 10:49:27;;;;;;;;;;;16.60;99.90;;;;;;5068876;28;19921;-66
2022/10/07 10:51:53;;;;;;;;;;;16.70;99.90;;;;;;5086713;28;19920;-66
2022/10/07 10:54:43;;;;;;;;;;;16.80;99.90;;;;;;5071953;28;19928;-66
2022/10/07 10:57:23;;;;;;;;;;;16.90;99.90;;;;;;5029015;28;19932;-66
2022/10/07 11:00:11;;;;;;;;;;;17.00;99.90;;;;;;5063152;28;19928;-66
2022/10/07 11:02:36;;;;;;;;;;;17.00;99.90;;;;;;5068624;28;19970;-66
2022/10/07 11:05:22;;;;;;;;;;;16.80;99.90;;;;;;5068051;28;19942;-66
2022/10/07 11:08:00;;;;;;;;;;;16.80;99.90;;;;;;5068993;28;19921;-66
2022/10/07 11:10:28;;;;;;;;;;;16.70;99.90;;;;;;5072163;28;20070;-66
2022/10/07 11:12:59;;;;;;;;;;;16.70;99.90;;;;;;5070272;28;20396;-66
2022/10/07 11:15:32;;;;;;;;;;;16.60;99.90;;;;;;5071058;28;19920;-66
2022/10/07 11:18:02;;;;;;;;;;;16.60;99.90;;;;;;5064118;28;19931;-66
2022/10/07 11:20:28;;;;;;;;;;;16.60;99.90;;;;;;5068568;28;19986;-66
2022/10/07 11:22:55;;;;;;;;;;;16.60;99.90;;;;;;5085176;28;20361;-66
2022/10/07 11:25:34;;;;;;;;;;;16.70;99.90;;;;;;5091528;28;19927;-66
2022/10/07 11:28:11;;;;;;;;;;;16.80;99.90;;;;;;5071375;28;19920;-66
2022/10/07 11:30:41;;;;;;;;;;;16.90;99.90;;;;;;5087306;28;19974;-66
2022/10/07 11:33:10;;;;;;;;;;;17.00;99.90;;;;;;5083888;28;20578;-66
2022/10/07 11:35:40;;;;;;;;;;;17.10;99.90;;;;;;5074221;28;19924;-66
2022/10/07 11:38:09;;;;;;;;;;;17.20;99.90;;;;;;5069522;28;19971;-66
2022/10/07 11:40:41;;;;;;;;;;;17.20;99.90;;;;;;5083379;28;20335;-66
2022/10/07 11:43:12;;;;;;;;;;;17.40;99.90;;;;;;5064103;28;19932;-66
2022/10/07 11:45:48;;;;;;;;;;;17.40;99.90;;;;;;5065279;28;19929;-66
2022/10/07 11:48:17;;;;;;;;;;;17.50;99.90;;;;;;5064307;28;19921;-66
2022/10/07 11:50:47;;;;;;;;;;;17.50;99.90;;;;;;5067706;28;20354;-66
2022/10/07 11:53:21;;;;;;;;;;;17.60;99.90;;;;;;5067390;28;19927;-66
2022/10/07 11:55:50;;;;;;;;;;;17.70;99.90;;;;;;5067094;28;19920;-66
2022/10/07 11:58:30;;;;;;;;;;;17.80;99.90;;;;;;5070091;28;19935;-66
2022/10/07 12:01:15;;;;;;;;;;;17.80;99.90;;;;;;5068567;28;19920;-66
2022/10/07 12:03:40;;;;;;;;;;;17.80;99.90;;;;;;5078985;28;19924;-66
2022/10/07 12:06:06;;;;;;;;;;;17.90;99.90;;;;;;5060332;28;20011;-66
2022/10/07 12:08:37;;;;;;;;;;;17.90;99.90;;;;;;5083601;28;20354;-66
2022/10/07 12:11:12;;;;;;;;;;;18.10;99.90;;;;;;5070503;28;20278;-66
2022/10/07 12:13:42;;;;;;;;;;;18.10;99.90;;;;;;5057617;28;19921;-66
2022/10/07 12:16:26;;;;;;;;;;;18.20;99.90;;;;;;5071908;28;19928;-66
2022/10/07 12:19:09;;;;;;;;;;;18.10;99.90;;;;;;5070861;28;19969;-66
2022/10/07 12:21:54;;;;;;;;;;;18.10;99.90;;;;;;5090565;28;19928;-66
2022/10/07 12:24:19;;;;;;;;;;;18.10;99.90;;;;;;5050146;28;20377;-66
2022/10/07 12:26:45;;;;;;;;;;;18.10;99.90;;;;;;5067241;28;19929;-67
2022/10/07 12:29:18;;;;;;;;;;;18.10;99.90;;;;;;5073608;28;19920;-66
2022/10/07 12:31:45;;;;;;;;;;;18.00;99.90;;;;;;5069846;28;19924;-66
2022/10/07 12:34:19;;;;;;;;;;;18.00;99.90;;;;;;5069722;28;19989;-66
2022/10/07 12:36:45;;;;;;;;;;;18.00;99.90;;;;;;5072861;28;19929;-66
2022/10/07 12:39:10;;;;;;;;;;;18.00;99.90;;;;;;5074092;28;19951;-66
2022/10/07 12:41:38;;;;;;;;;;;18.00;99.90;;;;;;5066646;28;19958;-66
2022/10/07 12:44:21;;;;;;;;;;;18.00;99.90;;;;;;5085470;28;19958;-66
2022/10/07 12:47:04;;;;;;;;;;;17.90;99.90;;;;;;5060712;28;20395;-66
2022/10/07 12:49:41;;;;;;;;;;;17.90;99.90;;;;;;5068566;28;19924;-66
2022/10/07 12:52:12;;;;;;;;;;;17.80;99.90;;;;;;5064696;28;19926;-66
2022/10/07 12:54:44;;;;;;;;;;;17.70;99.90;;;;;;5072163;28;19970;-66
2022/10/07 12:57:16;;;;;;;;;;;17.60;99.90;;;;;;5074591;28;19925;-66
2022/10/07 12:59:54;;;;;;;;;;;17.50;99.90;;;;;;5075290;28;19931;-66
2022/10/07 13:02:23;;;;;;;;;;;17.50;99.90;;;;;;5071839;28;20740;-66
2022/10/07 13:04:51;;;;;;;;;;;17.50;99.90;;;;;;5087397;28;20346;-67
2022/10/07 13:07:35;;;;;;;;;;;17.40;99.90;;;;;;5070898;28;19924;-67
2022/10/07 13:10:20;;;;;;;;;;;17.50;99.90;;;;;;5070226;28;19924;-67
2022/10/07 13:12:50;;;;;;;;;;;17.50;99.90;;;;;;5073092;28;19933;-67
2022/10/07 13:15:21;;;;;;;;;;;17.50;99.90;;;;;;5071537;28;19924;-67
2022/10/07 13:17:56;;;;;;;;;;;17.50;99.90;;;;;;5071756;28;20287;-66
2022/10/07 13:20:33;;;;;;;;;;;17.60;99.90;;;;;;5061951;28;19928;-66
2022/10/07 13:23:16;;;;;;;;;;;17.60;99.90;;;;;;5076831;28;19964;-67
2022/10/07 13:25:52;;;;;;;;;;;17.60;99.90;;;;;;5063233;28;19924;-67
2022/10/07 13:28:21;;;;;;;;;;;17.70;99.90;;;;;;5069921;28;20436;-67
2022/10/07 13:30:46;;;;;;;;;;;17.70;99.90;;;;;;5063877;28;20053;-67
2022/10/07 13:33:14;;;;;;;;;;;17.80;99.90;;;;;;5061744;28;20349;-67
2022/10/07 13:35:40;;;;;;;;;;;17.70;99.90;;;;;;5067514;28;19955;-67
2022/10/07 13:38:18;;;;;;;;;;;17.80;99.90;;;;;;5071791;28;19927;-67
2022/10/07 13:40:51;;;;;;;;;;;17.70;99.90;;;;;;5069985;28;19928;-66
2022/10/07 13:43:16;;;;;;;;;;;17.80;99.90;;;;;;5069659;28;19924;-66
2022/10/07 13:45:43;;;;;;;;;;;17.80;99.90;;;;;;5065621;28;20399;-66
2022/10/07 13:48:16;;;;;;;;;;;17.80;99.90;;;;;;5068597;28;19931;-66
2022/10/07 13:50:42;;;;;;;;;;;17.80;99.90;;;;;;5067885;28;19924;-66
2022/10/07 13:53:20;;;;;;;;;;;17.70;99.90;;;;;;5069712;28;20013;-66
2022/10/07 13:55:46;;;;;;;;;;;17.80;99.90;;;;;;5059273;28;19924;-67
2022/10/07 13:58:12;;;;;;;;;;;17.70;99.90;;;;;;5087850;28;19942;-67
2022/10/07 14:00:42;;;;;;;;;;;17.70;99.90;;;;;;5086891;28;19967;-66
2022/10/07 14:03:14;;;;;;;;;;;17.80;99.90;;;;;;5083875;28;19956;-66
2022/10/07 14:05:46;;;;;;;;;;;17.90;99.90;;;;;;5063700;28;19920;-66
2022/10/07 14:08:14;;;;;;;;;;;17.90;99.90;;;;;;5096228;28;19921;-66
2022/10/07 14:10:48;;;;;;;;;;;17.80;99.90;;;;;;5069160;28;19925;-66
2022/10/07 14:13:14;;;;;;;;;;;17.80;99.90;;;;;;5069189;28;20321;-66
2022/10/07 14:15:42;;;;;;;;;;;17.80;99.90;;;;;;5069678;28;19932;-66
2022/10/07 14:18:09;;;;;;;;;;;17.80;99.90;;;;;;5069713;28;19924;-66
2022/10/07 14:20:36;;;;;;;;;;;17.70;99.90;;;;;;5068679;28;19920;-66
2022/10/07 14:23:04;;;;;;;;;;;17.60;99.90;;;;;;5072381;28;20294;-66
2022/10/07 14:25:49;;;;;;;;;;;17.60;99.90;;;;;;5072762;28;19927;-66
2022/10/07 14:28:17;;;;;;;;;;;17.50;99.90;;;;;;5066934;28;19921;-66
2022/10/07 14:36:21;;;;;;;;;;;17.30;99.90;;;;;;5083088;28;19936;-67
2022/10/07 14:38:47;;;;;;;;;;;17.30;99.90;;;;;;5069982;28;20363;-66
2022/10/07 14:41:14;;;;;;;;;;;17.20;99.90;;;;;;5065871;28;19971;-66
2022/10/07 14:43:40;;;;;;;;;;;17.10;99.90;;;;;;5077137;28;19928;-66
2022/10/07 14:46:17;;;;;;;;;;;17.00;99.90;;;;;;5078986;28;19927;-67